sensor_id;sensor_type;location;lat;lon;timestamp;P1;durP1;ratioP1;P2;durP2;ratioP2
52112;SDS011;38109;49.488;31.988;2022-09-25T00:00:35;3.53;;;3.03;;
52112;SDS011;38109;49.488;31.988;2022-09-25T00:03:01;4.72;;;2.38;;
52112;SDS011;38109;49.488;31.988;2022-09-25T00:05:27;3.33;;;2.55;;
52112;SDS011;38109;49.488;31.988;2022-09-25T00:07:53;3.55;;;2.30;;
52112;SDS011;38109;49.488;31.988;2022-09-25T00:10:20;3.15;;;2.60;;
52112;SDS011;38109;49.488;31.988;2022-09-25T00:12:49;4.13;;;2.92;;
52112;SDS011;38109;49.488;31.988;2022-09-25T00:15:15;3.75;;;2.30;;
52112;SDS011;38109;49.488;31.988;2022-09-25T00:17:41;2.92;;;2.63;;
52112;SDS011;38109;49.488;31.988;2022-09-25T00:20:07;2.85;;;2.55;;
52112;SDS011;38109;49.488;31.988;2022-09-25T00:22:34;3.25;;;2.60;;
52112;SDS011;38109;49.488;31.988;2022-09-25T00:25:00;3.25;;;2.50;;
52112;SDS011;38109;49.488;31.988;2022-09-25T00:27:26;4.78;;;2.42;;
52112;SDS011;38109;49.488;31.988;2022-09-25T00:29:52;6.05;;;2.92;;
52112;SDS011;38109;49.488;31.988;2022-09-25T00:32:18;4.60;;;2.38;;
52112;SDS011;38109;49.488;31.988;2022-09-25T00:34:43;4.82;;;2.75;;
52112;SDS011;38109;49.488;31.988;2022-09-25T00:37:09;4.15;;;2.70;;
52112;SDS011;38109;49.488;31.988;2022-09-25T00:39:35;2.70;;;2.38;;
52112;SDS011;38109;49.488;31.988;2022-09-25T00:42:00;3.80;;;2.63;;
52112;SDS011;38109;49.488;31.988;2022-09-25T00:47:29;3.42;;;2.63;;
52112;SDS011;38109;49.488;31.988;2022-09-25T00:49:55;3.25;;;2.47;;
52112;SDS011;38109;49.488;31.988;2022-09-25T00:52:23;2.78;;;2.42;;
52112;SDS011;38109;49.488;31.988;2022-09-25T00:54:54;4.10;;;2.55;;
52112;SDS011;38109;49.488;31.988;2022-09-25T00:57:26;4.03;;;2.45;;
52112;SDS011;38109;49.488;31.988;2022-09-25T00:59:56;2.92;;;2.28;;
52112;SDS011;38109;49.488;31.988;2022-09-25T01:02:28;2.80;;;2.30;;
52112;SDS011;38109;49.488;31.988;2022-09-25T01:04:57;5.90;;;2.75;;
52112;SDS011;38109;49.488;31.988;2022-09-25T01:07:26;3.22;;;2.50;;
52112;SDS011;38109;49.488;31.988;2022-09-25T01:09:53;4.55;;;2.70;;
52112;SDS011;38109;49.488;31.988;2022-09-25T01:12:26;2.88;;;2.47;;
52112;SDS011;38109;49.488;31.988;2022-09-25T01:14:52;4.20;;;2.60;;
52112;SDS011;38109;49.488;31.988;2022-09-25T01:31:32;3.45;;;2.58;;
52112;SDS011;38109;49.488;31.988;2022-09-25T01:34:21;3.35;;;2.55;;
52112;SDS011;38109;49.488;31.988;2022-09-25T01:37:04;3.50;;;2.70;;
52112;SDS011;38109;49.488;31.988;2022-09-25T01:39:40;3.60;;;2.90;;
52112;SDS011;38109;49.488;31.988;2022-09-25T01:42:21;3.15;;;2.72;;
52112;SDS011;38109;49.488;31.988;2022-09-25T01:44:58;3.10;;;2.78;;
52112;SDS011;38109;49.488;31.988;2022-09-25T01:47:28;4.20;;;2.83;;
52112;SDS011;38109;49.488;31.988;2022-09-25T01:49:59;3.00;;;2.63;;
52112;SDS011;38109;49.488;31.988;2022-09-25T01:52:31;3.80;;;2.85;;
52112;SDS011;38109;49.488;31.988;2022-09-25T01:55:09;2.95;;;2.53;;
52112;SDS011;38109;49.488;31.988;2022-09-25T01:57:55;3.60;;;2.72;;
52112;SDS011;38109;49.488;31.988;2022-09-25T02:00:44;3.45;;;2.75;;
52112;SDS011;38109;49.488;31.988;2022-09-25T02:03:27;4.50;;;2.75;;
52112;SDS011;38109;49.488;31.988;2022-09-25T02:06:00;3.33;;;2.53;;
52112;SDS011;38109;49.488;31.988;2022-09-25T02:09:02;3.70;;;2.85;;
52112;SDS011;38109;49.488;31.988;2022-09-25T02:11:25;4.15;;;2.85;;
52112;SDS011;38109;49.488;31.988;2022-09-25T02:13:59;3.25;;;2.83;;
52112;SDS011;38109;49.488;31.988;2022-09-25T02:16:39;3.35;;;2.88;;
52112;SDS011;38109;49.488;31.988;2022-09-25T02:19:08;5.10;;;3.03;;
52112;SDS011;38109;49.488;31.988;2022-09-25T02:24:39;4.80;;;2.88;;
52112;SDS011;38109;49.488;31.988;2022-09-25T02:27:12;4.00;;;2.97;;
52112;SDS011;38109;49.488;31.988;2022-09-25T02:29:39;3.78;;;2.47;;
52112;SDS011;38109;49.488;31.988;2022-09-25T02:32:07;4.55;;;2.90;;
52112;SDS011;38109;49.488;31.988;2022-09-25T02:34:35;5.93;;;2.80;;
52112;SDS011;38109;49.488;31.988;2022-09-25T02:37:02;5.57;;;3.00;;
52112;SDS011;38109;49.488;31.988;2022-09-25T02:39:34;4.93;;;3.00;;
52112;SDS011;38109;49.488;31.988;2022-09-25T02:48:06;4.18;;;3.17;;
52112;SDS011;38109;49.488;31.988;2022-09-25T02:56:02;4.82;;;3.17;;
52112;SDS011;38109;49.488;31.988;2022-09-25T02:58:48;4.07;;;3.22;;
52112;SDS011;38109;49.488;31.988;2022-09-25T03:01:23;3.42;;;2.92;;
52112;SDS011;38109;49.488;31.988;2022-09-25T03:03:53;3.13;;;2.72;;
52112;SDS011;38109;49.488;31.988;2022-09-25T03:06:21;4.35;;;3.10;;
52112;SDS011;38109;49.488;31.988;2022-09-25T03:08:49;4.05;;;3.10;;
52112;SDS011;38109;49.488;31.988;2022-09-25T03:11:19;4.32;;;3.42;;
52112;SDS011;38109;49.488;31.988;2022-09-25T03:13:54;4.60;;;3.13;;
52112;SDS011;38109;49.488;31.988;2022-09-25T03:16:46;4.00;;;3.35;;
52112;SDS011;38109;49.488;31.988;2022-09-25T03:19:17;4.43;;;3.20;;
52112;SDS011;38109;49.488;31.988;2022-09-25T03:21:46;8.15;;;3.25;;
52112;SDS011;38109;49.488;31.988;2022-09-25T03:24:12;4.68;;;3.03;;
52112;SDS011;38109;49.488;31.988;2022-09-25T03:26:38;4.28;;;3.42;;
52112;SDS011;38109;49.488;31.988;2022-09-25T03:29:05;4.22;;;3.25;;
52112;SDS011;38109;49.488;31.988;2022-09-25T03:31:31;4.30;;;3.50;;
52112;SDS011;38109;49.488;31.988;2022-09-25T03:33:58;5.75;;;3.45;;
52112;SDS011;38109;49.488;31.988;2022-09-25T03:36:28;4.60;;;3.35;;
52112;SDS011;38109;49.488;31.988;2022-09-25T03:38:55;4.95;;;3.40;;
52112;SDS011;38109;49.488;31.988;2022-09-25T03:41:23;3.90;;;3.05;;
52112;SDS011;38109;49.488;31.988;2022-09-25T03:43:56;4.47;;;3.30;;
52112;SDS011;38109;49.488;31.988;2022-09-25T03:46:29;4.05;;;3.35;;
52112;SDS011;38109;49.488;31.988;2022-09-25T03:48:58;4.57;;;3.55;;
52112;SDS011;38109;49.488;31.988;2022-09-25T03:51:24;5.32;;;3.40;;
52112;SDS011;38109;49.488;31.988;2022-09-25T03:53:51;4.57;;;3.55;;
52112;SDS011;38109;49.488;31.988;2022-09-25T03:56:21;5.88;;;3.40;;
52112;SDS011;38109;49.488;31.988;2022-09-25T03:58:49;4.75;;;3.28;;
52112;SDS011;38109;49.488;31.988;2022-09-25T04:01:17;3.97;;;3.13;;
52112;SDS011;38109;49.488;31.988;2022-09-25T04:03:43;4.50;;;3.78;;
52112;SDS011;38109;49.488;31.988;2022-09-25T04:06:11;3.80;;;3.40;;
52112;SDS011;38109;49.488;31.988;2022-09-25T04:08:38;4.40;;;2.90;;
52112;SDS011;38109;49.488;31.988;2022-09-25T04:11:04;4.05;;;3.30;;
52112;SDS011;38109;49.488;31.988;2022-09-25T04:13:32;4.25;;;3.55;;
52112;SDS011;38109;49.488;31.988;2022-09-25T04:16:00;4.90;;;3.83;;
52112;SDS011;38109;49.488;31.988;2022-09-25T04:18:28;4.65;;;3.80;;
52112;SDS011;38109;49.488;31.988;2022-09-25T04:20:55;3.78;;;3.38;;
52112;SDS011;38109;49.488;31.988;2022-09-25T04:23:25;4.50;;;3.30;;
52112;SDS011;38109;49.488;31.988;2022-09-25T04:25:51;4.70;;;3.38;;
52112;SDS011;38109;49.488;31.988;2022-09-25T04:28:17;5.68;;;3.72;;
52112;SDS011;38109;49.488;31.988;2022-09-25T04:30:43;3.97;;;3.20;;
52112;SDS011;38109;49.488;31.988;2022-09-25T04:33:09;4.68;;;3.42;;
52112;SDS011;38109;49.488;31.988;2022-09-25T04:35:53;3.88;;;3.25;;
52112;SDS011;38109;49.488;31.988;2022-09-25T04:38:19;4.55;;;3.83;;
52112;SDS011;38109;49.488;31.988;2022-09-25T04:40:44;4.43;;;3.45;;
52112;SDS011;38109;49.488;31.988;2022-09-25T04:43:10;4.70;;;3.47;;
52112;SDS011;38109;49.488;31.988;2022-09-25T04:45:36;6.32;;;3.67;;
52112;SDS011;38109;49.488;31.988;2022-09-25T04:48:02;5.45;;;3.85;;
52112;SDS011;38109;49.488;31.988;2022-09-25T04:50:28;4.72;;;3.65;;
52112;SDS011;38109;49.488;31.988;2022-09-25T04:52:57;5.22;;;3.35;;
52112;SDS011;38109;49.488;31.988;2022-09-25T04:55:24;5.05;;;3.47;;
52112;SDS011;38109;49.488;31.988;2022-09-25T04:57:55;9.73;;;3.50;;
52112;SDS011;38109;49.488;31.988;2022-09-25T05:00:23;4.13;;;3.40;;
52112;SDS011;38109;49.488;31.988;2022-09-25T05:02:50;5.30;;;3.50;;
52112;SDS011;38109;49.488;31.988;2022-09-25T05:05:16;4.75;;;3.45;;
52112;SDS011;38109;49.488;31.988;2022-09-25T05:07:59;5.28;;;3.45;;
52112;SDS011;38109;49.488;31.988;2022-09-25T05:10:29;4.72;;;3.40;;
52112;SDS011;38109;49.488;31.988;2022-09-25T05:12:59;5.30;;;3.70;;
52112;SDS011;38109;49.488;31.988;2022-09-25T05:15:26;4.80;;;3.50;;
52112;SDS011;38109;49.488;31.988;2022-09-25T05:17:59;4.57;;;3.65;;
52112;SDS011;38109;49.488;31.988;2022-09-25T05:20:29;4.20;;;3.38;;
52112;SDS011;38109;49.488;31.988;2022-09-25T05:22:55;3.40;;;3.10;;
52112;SDS011;38109;49.488;31.988;2022-09-25T05:25:22;6.18;;;2.80;;
52112;SDS011;38109;49.488;31.988;2022-09-25T05:27:49;4.75;;;3.40;;
52112;SDS011;38109;49.488;31.988;2022-09-25T05:30:16;3.80;;;3.25;;
52112;SDS011;38109;49.488;31.988;2022-09-25T05:32:51;4.22;;;3.22;;
52112;SDS011;38109;49.488;31.988;2022-09-25T05:35:18;3.75;;;3.20;;
52112;SDS011;38109;49.488;31.988;2022-09-25T05:37:45;4.68;;;3.40;;
52112;SDS011;38109;49.488;31.988;2022-09-25T05:40:11;5.05;;;3.40;;
52112;SDS011;38109;49.488;31.988;2022-09-25T05:42:42;3.35;;;3.05;;
52112;SDS011;38109;49.488;31.988;2022-09-25T05:45:09;4.43;;;2.88;;
52112;SDS011;38109;49.488;31.988;2022-09-25T05:47:38;4.22;;;3.45;;
52112;SDS011;38109;49.488;31.988;2022-09-25T05:50:05;3.90;;;3.10;;
52112;SDS011;38109;49.488;31.988;2022-09-25T05:52:33;4.72;;;3.00;;
52112;SDS011;38109;49.488;31.988;2022-09-25T05:54:59;4.70;;;3.13;;
52112;SDS011;38109;49.488;31.988;2022-09-25T05:57:29;5.30;;;3.38;;
52112;SDS011;38109;49.488;31.988;2022-09-25T05:59:55;6.05;;;3.22;;
52112;SDS011;38109;49.488;31.988;2022-09-25T06:02:21;4.03;;;2.70;;
52112;SDS011;38109;49.488;31.988;2022-09-25T06:04:46;3.35;;;2.80;;
52112;SDS011;38109;49.488;31.988;2022-09-25T06:07:15;3.92;;;3.00;;
52112;SDS011;38109;49.488;31.988;2022-09-25T06:09:41;4.13;;;3.05;;
52112;SDS011;38109;49.488;31.988;2022-09-25T06:12:06;2.97;;;2.63;;
52112;SDS011;38109;49.488;31.988;2022-09-25T06:14:32;3.90;;;2.70;;
52112;SDS011;38109;49.488;31.988;2022-09-25T06:16:59;3.45;;;2.60;;
52112;SDS011;38109;49.488;31.988;2022-09-25T06:19:25;3.22;;;2.80;;
52112;SDS011;38109;49.488;31.988;2022-09-25T06:21:53;5.43;;;2.60;;
52112;SDS011;38109;49.488;31.988;2022-09-25T06:24:19;3.50;;;2.58;;
52112;SDS011;38109;49.488;31.988;2022-09-25T06:26:45;2.80;;;2.35;;
52112;SDS011;38109;49.488;31.988;2022-09-25T06:29:11;4.35;;;2.47;;
52112;SDS011;38109;49.488;31.988;2022-09-25T06:31:41;6.65;;;2.65;;
52112;SDS011;38109;49.488;31.988;2022-09-25T06:34:09;2.92;;;2.60;;
52112;SDS011;38109;49.488;31.988;2022-09-25T06:36:40;4.00;;;2.38;;
52112;SDS011;38109;49.488;31.988;2022-09-25T06:39:06;6.82;;;2.60;;
52112;SDS011;38109;49.488;31.988;2022-09-25T06:41:32;2.47;;;2.28;;
52112;SDS011;38109;49.488;31.988;2022-09-25T06:43:59;4.80;;;2.53;;
52112;SDS011;38109;49.488;31.988;2022-09-25T06:46:25;3.92;;;2.40;;
52112;SDS011;38109;49.488;31.988;2022-09-25T06:48:51;4.65;;;2.80;;
52112;SDS011;38109;49.488;31.988;2022-09-25T06:51:22;2.83;;;2.17;;
52112;SDS011;38109;49.488;31.988;2022-09-25T06:53:53;3.33;;;2.45;;
52112;SDS011;38109;49.488;31.988;2022-09-25T06:56:19;2.65;;;2.20;;
52112;SDS011;38109;49.488;31.988;2022-09-25T06:58:45;3.35;;;2.20;;
52112;SDS011;38109;49.488;31.988;2022-09-25T07:01:10;2.78;;;2.38;;
52112;SDS011;38109;49.488;31.988;2022-09-25T07:03:39;3.72;;;2.33;;
52112;SDS011;38109;49.488;31.988;2022-09-25T07:06:20;2.55;;;2.28;;
52112;SDS011;38109;49.488;31.988;2022-09-25T07:08:48;2.35;;;2.15;;
52112;SDS011;38109;49.488;31.988;2022-09-25T07:11:23;2.75;;;2.10;;
52112;SDS011;38109;49.488;31.988;2022-09-25T07:13:50;4.30;;;2.42;;
52112;SDS011;38109;49.488;31.988;2022-09-25T07:16:17;3.78;;;2.15;;
52112;SDS011;38109;49.488;31.988;2022-09-25T07:18:46;3.38;;;2.10;;
52112;SDS011;38109;49.488;31.988;2022-09-25T07:21:13;3.00;;;2.50;;
52112;SDS011;38109;49.488;31.988;2022-09-25T07:23:43;3.83;;;2.72;;
52112;SDS011;38109;49.488;31.988;2022-09-25T07:26:15;2.90;;;2.40;;
52112;SDS011;38109;49.488;31.988;2022-09-25T07:28:46;4.05;;;2.50;;
52112;SDS011;38109;49.488;31.988;2022-09-25T07:31:17;6.97;;;2.13;;
52112;SDS011;38109;49.488;31.988;2022-09-25T07:33:52;2.35;;;1.90;;
52112;SDS011;38109;49.488;31.988;2022-09-25T07:36:18;2.88;;;2.30;;
52112;SDS011;38109;49.488;31.988;2022-09-25T07:38:53;2.72;;;2.45;;
52112;SDS011;38109;49.488;31.988;2022-09-25T07:41:19;3.83;;;2.60;;
52112;SDS011;38109;49.488;31.988;2022-09-25T07:43:53;3.58;;;2.70;;
52112;SDS011;38109;49.488;31.988;2022-09-25T07:46:21;3.28;;;2.40;;
52112;SDS011;38109;49.488;31.988;2022-09-25T07:51:20;2.83;;;2.17;;
52112;SDS011;38109;49.488;31.988;2022-09-25T07:53:46;2.70;;;2.10;;
52112;SDS011;38109;49.488;31.988;2022-09-25T07:56:15;2.35;;;2.00;;
52112;SDS011;38109;49.488;31.988;2022-09-25T07:58:41;2.53;;;1.83;;
52112;SDS011;38109;49.488;31.988;2022-09-25T08:01:09;3.40;;;2.15;;
52112;SDS011;38109;49.488;31.988;2022-09-25T08:03:39;3.47;;;2.08;;
52112;SDS011;38109;49.488;31.988;2022-09-25T08:06:05;4.72;;;2.42;;
52112;SDS011;38109;49.488;31.988;2022-09-25T08:08:34;2.40;;;1.88;;
52112;SDS011;38109;49.488;31.988;2022-09-25T08:11:00;2.72;;;1.90;;
52112;SDS011;38109;49.488;31.988;2022-09-25T08:13:28;3.88;;;2.13;;
52112;SDS011;38109;49.488;31.988;2022-09-25T08:15:56;2.40;;;2.08;;
52112;SDS011;38109;49.488;31.988;2022-09-25T08:18:22;1.92;;;1.80;;
52112;SDS011;38109;49.488;31.988;2022-09-25T08:20:47;3.63;;;2.10;;
52112;SDS011;38109;49.488;31.988;2022-09-25T08:23:13;2.78;;;1.90;;
52112;SDS011;38109;49.488;31.988;2022-09-25T08:25:39;3.42;;;2.17;;
52112;SDS011;38109;49.488;31.988;2022-09-25T08:28:04;2.33;;;2.13;;
52112;SDS011;38109;49.488;31.988;2022-09-25T08:30:30;3.45;;;2.30;;
52112;SDS011;38109;49.488;31.988;2022-09-25T08:32:56;3.35;;;2.30;;
52112;SDS011;38109;49.488;31.988;2022-09-25T08:35:22;2.00;;;1.80;;
52112;SDS011;38109;49.488;31.988;2022-09-25T08:37:48;1.85;;;1.67;;
52112;SDS011;38109;49.488;31.988;2022-09-25T08:40:17;2.00;;;1.80;;
52112;SDS011;38109;49.488;31.988;2022-09-25T08:42:45;3.38;;;1.70;;
52112;SDS011;38109;49.488;31.988;2022-09-25T08:45:23;2.00;;;1.70;;
52112;SDS011;38109;49.488;31.988;2022-09-25T08:48:17;2.08;;;1.52;;
52112;SDS011;38109;49.488;31.988;2022-09-25T08:51:11;2.95;;;2.03;;
52112;SDS011;38109;49.488;31.988;2022-09-25T08:53:37;2.97;;;1.90;;
52112;SDS011;38109;49.488;31.988;2022-09-25T08:56:05;5.43;;;1.80;;
52112;SDS011;38109;49.488;31.988;2022-09-25T14:08:14;15.90;;;11.60;;
52112;SDS011;38109;49.488;31.988;2022-09-25T14:10:45;35.92;;;23.33;;
52112;SDS011;38109;49.488;31.988;2022-09-25T14:13:13;16.00;;;10.85;;
52112;SDS011;38109;49.488;31.988;2022-09-25T14:15:41;21.30;;;10.90;;
52112;SDS011;38109;49.488;31.988;2022-09-25T14:18:14;24.15;;;14.18;;
52112;SDS011;38109;49.488;31.988;2022-09-25T14:20:44;26.52;;;15.95;;
52112;SDS011;38109;49.488;31.988;2022-09-25T14:25:45;26.10;;;16.73;;
52112;SDS011;38109;49.488;31.988;2022-09-25T14:28:19;25.15;;;16.70;;
52112;SDS011;38109;49.488;31.988;2022-09-25T14:30:50;12.77;;;9.27;;
52112;SDS011;38109;49.488;31.988;2022-09-25T14:47:37;35.08;;;24.33;;
52112;SDS011;38109;49.488;31.988;2022-09-25T14:50:09;20.50;;;14.68;;
52112;SDS011;38109;49.488;31.988;2022-09-25T14:52:53;77.70;;;44.43;;
52112;SDS011;38109;49.488;31.988;2022-09-25T14:55:22;107.78;;;63.38;;
52112;SDS011;38109;49.488;31.988;2022-09-25T14:57:50;136.00;;;80.68;;
52112;SDS011;38109;49.488;31.988;2022-09-25T15:00:18;223.45;;;129.93;;
52112;SDS011;38109;49.488;31.988;2022-09-25T15:02:48;239.07;;;137.25;;
52112;SDS011;38109;49.488;31.988;2022-09-25T15:05:27;249.55;;;147.05;;
52112;SDS011;38109;49.488;31.988;2022-09-25T15:07:56;340.52;;;202.35;;
52112;SDS011;38109;49.488;31.988;2022-09-25T15:12:52;462.52;;;301.63;;
52112;SDS011;38109;49.488;31.988;2022-09-25T15:15:19;847.80;;;584.08;;
52112;SDS011;38109;49.488;31.988;2022-09-25T15:17:49;1605.72;;;910.30;;
52112;SDS011;38109;49.488;31.988;2022-09-25T15:20:20;767.67;;;582.95;;
52112;SDS011;38109;49.488;31.988;2022-09-25T15:23:03;489.73;;;346.60;;
52112;SDS011;38109;49.488;31.988;2022-09-25T15:25:32;353.88;;;228.70;;
52112;SDS011;38109;49.488;31.988;2022-09-25T15:28:03;246.85;;;155.15;;
52112;SDS011;38109;49.488;31.988;2022-09-25T15:30:30;225.30;;;143.90;;
52112;SDS011;38109;49.488;31.988;2022-09-25T15:32:59;147.20;;;92.80;;
52112;SDS011;38109;49.488;31.988;2022-09-25T15:35:26;97.45;;;58.08;;
52112;SDS011;38109;49.488;31.988;2022-09-25T15:38:01;177.48;;;109.28;;
52112;SDS011;38109;49.488;31.988;2022-09-25T15:40:37;141.23;;;88.47;;
52112;SDS011;38109;49.488;31.988;2022-09-25T15:43:13;86.03;;;53.33;;
52112;SDS011;38109;49.488;31.988;2022-09-25T15:51:01;51.58;;;33.40;;
52112;SDS011;38109;49.488;31.988;2022-09-25T15:53:32;32.33;;;21.45;;
52112;SDS011;38109;49.488;31.988;2022-09-25T15:56:01;34.38;;;20.50;;
52112;SDS011;38109;49.488;31.988;2022-09-25T16:01:29;42.05;;;28.67;;
52112;SDS011;38109;49.488;31.988;2022-09-25T16:04:22;88.03;;;58.40;;
52112;SDS011;38109;49.488;31.988;2022-09-25T16:07:23;101.18;;;64.35;;
52112;SDS011;38109;49.488;31.988;2022-09-25T16:10:00;60.67;;;39.30;;
52112;SDS011;38109;49.488;31.988;2022-09-25T16:18:39;17.30;;;12.07;;
52112;SDS011;38109;49.488;31.988;2022-09-25T16:20:45;15.32;;;10.23;;
52112;SDS011;38109;49.488;31.988;2022-09-25T16:23:24;62.28;;;35.33;;
52112;SDS011;38109;49.488;31.988;2022-09-25T16:28:19;505.02;;;320.10;;
52112;SDS011;38109;49.488;31.988;2022-09-25T16:30:57;678.65;;;499.17;;
52112;SDS011;38109;49.488;31.988;2022-09-25T16:33:26;481.95;;;333.23;;
52112;SDS011;38109;49.488;31.988;2022-09-25T16:36:00;418.47;;;283.20;;
52112;SDS011;38109;49.488;31.988;2022-09-25T16:38:32;238.93;;;153.30;;
52112;SDS011;38109;49.488;31.988;2022-09-25T16:41:02;235.40;;;159.70;;
52112;SDS011;38109;49.488;31.988;2022-09-25T16:47:24;189.82;;;134.93;;
52112;SDS011;38109;49.488;31.988;2022-09-25T16:49:24;131.45;;;94.93;;
52112;SDS011;38109;49.488;31.988;2022-09-25T16:51:51;92.13;;;67.93;;
52112;SDS011;38109;49.488;31.988;2022-09-25T16:54:19;63.22;;;43.10;;
52112;SDS011;38109;49.488;31.988;2022-09-25T16:56:48;155.40;;;93.82;;
52112;SDS011;38109;49.488;31.988;2022-09-25T16:59:18;473.42;;;351.58;;
52112;SDS011;38109;49.488;31.988;2022-09-25T17:01:49;576.58;;;423.23;;
52112;SDS011;38109;49.488;31.988;2022-09-25T17:04:23;662.35;;;496.30;;
52112;SDS011;38109;49.488;31.988;2022-09-25T17:09:27;460.38;;;330.27;;
52112;SDS011;38109;49.488;31.988;2022-09-25T17:11:59;287.02;;;195.25;;
52112;SDS011;38109;49.488;31.988;2022-09-25T17:14:31;158.95;;;110.35;;
52112;SDS011;38109;49.488;31.988;2022-09-25T17:16:58;109.63;;;74.90;;
52112;SDS011;38109;49.488;31.988;2022-09-25T17:19:23;197.10;;;134.90;;
52112;SDS011;38109;49.488;31.988;2022-09-25T17:21:50;226.68;;;150.73;;
52112;SDS011;38109;49.488;31.988;2022-09-25T17:24:18;347.40;;;223.18;;
52112;SDS011;38109;49.488;31.988;2022-09-25T17:26:46;749.05;;;555.80;;
52112;SDS011;38109;49.488;31.988;2022-09-25T17:29:12;856.25;;;623.05;;
52112;SDS011;38109;49.488;31.988;2022-09-25T17:31:38;736.42;;;532.97;;
52112;SDS011;38109;49.488;31.988;2022-09-25T17:34:14;902.13;;;575.17;;
52112;SDS011;38109;49.488;31.988;2022-09-25T17:36:41;989.13;;;581.45;;
52112;SDS011;38109;49.488;31.988;2022-09-25T17:39:08;1000.80;;;557.65;;
52112;SDS011;38109;49.488;31.988;2022-09-25T17:44:03;572.28;;;283.08;;
52112;SDS011;38109;49.488;31.988;2022-09-25T17:46:29;321.30;;;135.35;;
52112;SDS011;38109;49.488;31.988;2022-09-25T17:51:33;87.82;;;46.83;;
52112;SDS011;38109;49.488;31.988;2022-09-25T17:53:59;94.68;;;50.10;;
52112;SDS011;38109;49.488;31.988;2022-09-25T17:56:30;261.92;;;138.13;;
52112;SDS011;38109;49.488;31.988;2022-09-25T17:58:58;281.75;;;150.35;;
52112;SDS011;38109;49.488;31.988;2022-09-25T18:01:26;314.67;;;183.02;;
52112;SDS011;38109;49.488;31.988;2022-09-25T18:03:55;366.50;;;220.15;;
52112;SDS011;38109;49.488;31.988;2022-09-25T18:06:23;341.02;;;220.25;;
52112;SDS011;38109;49.488;31.988;2022-09-25T18:08:49;253.48;;;158.55;;
52112;SDS011;38109;49.488;31.988;2022-09-25T18:11:17;163.60;;;106.70;;
52112;SDS011;38109;49.488;31.988;2022-09-25T18:13:43;89.95;;;58.20;;
52112;SDS011;38109;49.488;31.988;2022-09-25T18:16:13;82.30;;;51.65;;
52112;SDS011;38109;49.488;31.988;2022-09-25T18:18:43;95.05;;;58.03;;
52112;SDS011;38109;49.488;31.988;2022-09-25T18:21:28;83.00;;;53.80;;
52112;SDS011;38109;49.488;31.988;2022-09-25T18:24:12;71.68;;;46.08;;
52112;SDS011;38109;49.488;31.988;2022-09-25T18:26:39;53.70;;;33.78;;
52112;SDS011;38109;49.488;31.988;2022-09-25T18:29:06;55.20;;;35.00;;
52112;SDS011;38109;49.488;31.988;2022-09-25T18:31:32;96.03;;;56.40;;
52112;SDS011;38109;49.488;31.988;2022-09-25T18:33:57;101.97;;;60.60;;
52112;SDS011;38109;49.488;31.988;2022-09-25T18:36:23;61.40;;;38.10;;
52112;SDS011;38109;49.488;31.988;2022-09-25T18:38:49;46.38;;;27.17;;
52112;SDS011;38109;49.488;31.988;2022-09-25T18:41:14;39.20;;;23.55;;
52112;SDS011;38109;49.488;31.988;2022-09-25T18:43:40;46.90;;;30.33;;
52112;SDS011;38109;49.488;31.988;2022-09-25T18:46:06;51.65;;;34.42;;
52112;SDS011;38109;49.488;31.988;2022-09-25T18:48:32;43.95;;;30.10;;
52112;SDS011;38109;49.488;31.988;2022-09-25T18:50:59;33.00;;;23.67;;
52112;SDS011;38109;49.488;31.988;2022-09-25T18:53:25;26.90;;;18.25;;
52112;SDS011;38109;49.488;31.988;2022-09-25T18:55:52;25.25;;;16.13;;
52112;SDS011;38109;49.488;31.988;2022-09-25T18:58:23;24.25;;;14.93;;
52112;SDS011;38109;49.488;31.988;2022-09-25T19:00:52;21.45;;;13.57;;
52112;SDS011;38109;49.488;31.988;2022-09-25T19:03:18;22.38;;;15.10;;
52112;SDS011;38109;49.488;31.988;2022-09-25T19:05:53;23.17;;;14.27;;
52112;SDS011;38109;49.488;31.988;2022-09-25T19:08:20;25.38;;;14.45;;
52112;SDS011;38109;49.488;31.988;2022-09-25T19:13:21;18.10;;;13.02;;
52112;SDS011;38109;49.488;31.988;2022-09-25T19:15:47;21.70;;;14.65;;
52112;SDS011;38109;49.488;31.988;2022-09-25T19:18:13;24.05;;;15.70;;
52112;SDS011;38109;49.488;31.988;2022-09-25T19:20:49;30.52;;;19.23;;
52112;SDS011;38109;49.488;31.988;2022-09-25T19:28:31;23.50;;;16.92;;
52112;SDS011;38109;49.488;31.988;2022-09-25T19:30:59;66.95;;;36.97;;
52112;SDS011;38109;49.488;31.988;2022-09-25T19:33:35;90.95;;;49.55;;
52112;SDS011;38109;49.488;31.988;2022-09-25T19:36:03;112.70;;;61.90;;
52112;SDS011;38109;49.488;31.988;2022-09-25T19:38:35;148.05;;;83.13;;
52112;SDS011;38109;49.488;31.988;2022-09-25T19:41:02;97.53;;;59.72;;
52112;SDS011;38109;49.488;31.988;2022-09-25T19:43:34;88.30;;;55.35;;
52112;SDS011;38109;49.488;31.988;2022-09-25T19:46:00;51.70;;;33.80;;
52112;SDS011;38109;49.488;31.988;2022-09-25T19:48:27;48.25;;;32.33;;
52112;SDS011;38109;49.488;31.988;2022-09-25T19:50:52;36.85;;;25.05;;
52112;SDS011;38109;49.488;31.988;2022-09-25T19:53:18;26.80;;;18.70;;
52112;SDS011;38109;49.488;31.988;2022-09-25T19:55:50;80.55;;;51.42;;
52112;SDS011;38109;49.488;31.988;2022-09-25T19:58:18;179.60;;;113.07;;
52112;SDS011;38109;49.488;31.988;2022-09-25T20:00:44;248.40;;;160.57;;
52112;SDS011;38109;49.488;31.988;2022-09-25T20:03:10;352.13;;;233.80;;
52112;SDS011;38109;49.488;31.988;2022-09-25T20:05:36;385.42;;;257.73;;
52112;SDS011;38109;49.488;31.988;2022-09-25T20:10:40;302.67;;;211.00;;
52112;SDS011;38109;49.488;31.988;2022-09-25T20:13:06;271.83;;;183.77;;
52112;SDS011;38109;49.488;31.988;2022-09-25T20:15:32;269.77;;;185.52;;
52112;SDS011;38109;49.488;31.988;2022-09-25T20:17:58;228.75;;;154.32;;
52112;SDS011;38109;49.488;31.988;2022-09-25T20:20:25;176.45;;;120.82;;
52112;SDS011;38109;49.488;31.988;2022-09-25T20:22:53;159.38;;;107.93;;
52112;SDS011;38109;49.488;31.988;2022-09-25T20:25:20;153.57;;;104.90;;
52112;SDS011;38109;49.488;31.988;2022-09-25T20:27:47;203.32;;;128.90;;
52112;SDS011;38109;49.488;31.988;2022-09-25T20:30:13;164.85;;;102.65;;
52112;SDS011;38109;49.488;31.988;2022-09-25T20:32:39;131.85;;;80.97;;
52112;SDS011;38109;49.488;31.988;2022-09-25T20:35:04;139.68;;;81.95;;
52112;SDS011;38109;49.488;31.988;2022-09-25T20:37:31;131.38;;;77.10;;
52112;SDS011;38109;49.488;31.988;2022-09-25T20:39:56;117.20;;;71.53;;
52112;SDS011;38109;49.488;31.988;2022-09-25T21:08:37;157.77;;;105.63;;
52112;SDS011;38109;49.488;31.988;2022-09-25T21:11:02;202.90;;;135.95;;
52112;SDS011;38109;49.488;31.988;2022-09-25T21:13:30;214.73;;;139.32;;
52112;SDS011;38109;49.488;31.988;2022-09-25T21:16:10;174.55;;;113.00;;
52112;SDS011;38109;49.488;31.988;2022-09-25T21:18:37;172.07;;;113.15;;
52112;SDS011;38109;49.488;31.988;2022-09-25T21:21:05;203.73;;;130.50;;
52112;SDS011;38109;49.488;31.988;2022-09-25T21:23:32;163.70;;;105.28;;
52112;SDS011;38109;49.488;31.988;2022-09-25T21:26:06;220.50;;;138.10;;
52112;SDS011;38109;49.488;31.988;2022-09-25T21:28:36;161.48;;;101.50;;
52112;SDS011;38109;49.488;31.988;2022-09-25T21:31:19;206.00;;;128.90;;
52112;SDS011;38109;49.488;31.988;2022-09-25T21:33:46;178.77;;;114.72;;
52112;SDS011;38109;49.488;31.988;2022-09-25T21:36:15;196.15;;;127.70;;
52112;SDS011;38109;49.488;31.988;2022-09-25T21:38:41;183.25;;;115.90;;